Time;durP1;ratioP1;P1;durP2;ratioP2;P2;SDS_P1;SDS_P2;PMS_P1;PMS_P2;Temp;Humidity;BMP_temperature;BMP_pressure;BME280_temperature;BME280_humidity;BME280_pressure;Samples;Min_cycle;Max_cycle;Signal;HPM_P1;HPM_P2
2022/11/03 00:01:40;;;;;;;12.90;9.35;;;11.30;69.50;;;;;;5027172;28;20515;-61
2022/11/03 00:04:07;;;;;;;15.52;10.20;;;11.30;69.50;;;;;;5028857;28;20568;-60
2022/11/03 00:06:34;;;;;;;16.45;11.48;;;11.30;69.60;;;;;;5033436;28;20022;-61
2022/11/03 00:09:02;;;;;;;14.48;10.63;;;11.30;69.50;;;;;;5030540;28;20022;-59
2022/11/03 00:11:30;;;;;;;14.63;10.10;;;11.30;69.60;;;;;;5022113;28;20060;-60
2022/11/03 00:13:56;;;;;;;12.85;9.45;;;11.30;69.70;;;;;;5031977;28;20029;-60
2022/11/03 00:16:22;;;;;;;15.07;10.68;;;11.30;69.70;;;;;;5033349;28;20072;-60
2022/11/03 00:18:47;;;;;;;12.65;8.95;;;11.40;69.80;;;;;;5019641;28;20032;-58
2022/11/03 00:21:13;;;;;;;12.63;10.10;;;11.40;69.90;;;;;;5029540;28;20096;-57
2022/11/03 00:23:41;;;;;;;13.98;9.88;;;11.30;69.80;;;;;;5035662;28;20484;-60
2022/11/03 00:26:17;;;;;;;14.13;9.70;;;11.40;70.00;;;;;;5023509;28;20022;-59
2022/11/03 00:28:44;;;;;;;13.02;8.88;;;11.40;70.00;;;;;;5033073;28;20083;-60
2022/11/03 00:31:13;;;;;;;12.30;9.27;;;11.40;70.00;;;;;;5039898;28;20025;-56
2022/11/03 00:33:40;;;;;;;12.88;9.05;;;11.40;70.00;;;;;;5023416;28;20369;-59
2022/11/03 00:36:06;;;;;;;14.40;8.77;;;11.40;70.00;;;;;;5033164;28;20503;-59
2022/11/03 00:38:32;;;;;;;13.10;8.95;;;11.50;70.10;;;;;;5032511;28;20032;-58
2022/11/03 00:41:02;;;;;;;17.10;10.45;;;11.50;70.10;;;;;;5025596;28;20030;-59
2022/11/03 00:43:30;;;;;;;12.90;9.18;;;11.50;70.30;;;;;;5023506;28;20030;-61
2022/11/03 00:45:56;;;;;;;14.32;9.63;;;11.50;70.40;;;;;;5032236;28;20033;-60
2022/11/03 00:48:28;;;;;;;14.73;9.18;;;11.50;70.30;;;;;;5016325;28;20370;-58
2022/11/03 00:51:04;;;;;;;12.07;9.70;;;11.50;70.40;;;;;;5020109;28;20032;-57
2022/11/03 00:53:32;;;;;;;15.18;10.93;;;11.50;70.50;;;;;;5028063;28;20421;-59
2022/11/03 00:55:57;;;;;;;15.02;10.45;;;11.60;70.50;;;;;;5032598;28;20033;-60
2022/11/03 00:58:23;;;;;;;15.20;10.80;;;11.60;70.60;;;;;;5033856;28;20032;-61
2022/11/03 01:00:49;;;;;;;10.82;8.20;;;11.60;70.60;;;;;;5027299;28;20033;-56
2022/11/03 01:03:14;;;;;;;12.45;8.60;;;11.50;70.60;;;;;;5034707;28;20029;-56
2022/11/03 01:08:32;;;;;;;11.77;7.80;;;11.60;70.60;;;;;;5040381;28;20055;-54
2022/11/03 01:13:55;;;;;;;12.75;8.60;;;11.60;70.60;;;;;;5035049;28;20056;-55
2022/11/03 01:16:21;;;;;;;12.38;8.45;;;11.60;70.60;;;;;;5035450;28;20025;-55
2022/11/03 01:18:47;;;;;;;12.90;8.00;;;11.60;70.70;;;;;;5040219;28;20036;-56
2022/11/03 01:21:13;;;;;;;12.30;8.77;;;11.60;70.70;;;;;;5035168;28;20104;-55
2022/11/03 01:23:38;;;;;;;13.10;8.90;;;11.60;70.70;;;;;;5034448;28;20473;-55
2022/11/03 01:26:06;;;;;;;14.00;9.48;;;11.70;70.90;;;;;;5039851;28;20434;-57
2022/11/03 01:28:36;;;;;;;11.52;7.90;;;11.70;70.90;;;;;;5037277;28;20068;-55
2022/11/03 01:31:11;;;;;;;12.77;8.85;;;11.70;70.90;;;;;;5035486;28;20499;-55
2022/11/03 01:33:37;;;;;;;12.82;8.68;;;11.70;71.00;;;;;;5034475;28;20437;-56
2022/11/03 01:36:03;;;;;;;12.40;8.30;;;11.70;71.10;;;;;;5043615;28;20025;-56
2022/11/03 01:38:35;;;;;;;12.88;8.95;;;11.70;71.10;;;;;;5032868;28;20037;-55
2022/11/03 01:41:03;;;;;;;12.18;8.73;;;11.70;71.20;;;;;;5035512;28;20091;-56
2022/11/03 01:43:31;;;;;;;13.07;8.93;;;11.70;71.20;;;;;;5034264;28;20022;-55
2022/11/03 01:46:08;;;;;;;12.43;8.98;;;11.70;71.20;;;;;;5027858;28;20049;-56
2022/11/03 01:48:35;;;;;;;10.98;7.93;;;11.70;71.30;;;;;;5022361;28;20022;-56
2022/11/03 01:51:03;;;;;;;13.65;8.93;;;11.70;71.40;;;;;;5035371;28;20022;-56
2022/11/03 01:53:29;;;;;;;14.68;8.38;;;11.70;71.40;;;;;;5034698;28;20029;-57
2022/11/03 01:55:56;;;;;;;13.13;8.70;;;11.60;71.40;;;;;;5029108;28;20246;-56
2022/11/03 01:58:28;;;;;;;12.55;9.35;;;11.70;71.50;;;;;;5033977;28;20100;-55
2022/11/03 02:00:58;;;;;;;13.25;9.50;;;11.70;71.50;;;;;;5034485;28;20056;-55
2022/11/03 02:03:25;;;;;;;14.80;10.35;;;11.70;71.50;;;;;;5035125;28;20025;-55
2022/11/03 02:05:53;;;;;;;13.02;9.20;;;11.70;71.60;;;;;;5035900;28;20507;-56
2022/11/03 02:08:27;;;;;;;14.60;10.55;;;11.60;71.60;;;;;;5033091;28;20022;-56
2022/11/03 02:10:52;;;;;;;14.02;10.02;;;11.60;71.70;;;;;;5034361;28;20065;-57
2022/11/03 02:13:21;;;;;;;14.55;9.75;;;11.60;71.70;;;;;;5034653;28;20044;-56
2022/11/03 02:15:54;;;;;;;12.85;8.95;;;11.60;71.70;;;;;;5034600;28;20044;-55
2022/11/03 02:18:31;;;;;;;14.38;10.43;;;11.60;71.80;;;;;;5033440;28;20025;-56
2022/11/03 02:21:27;;;;;;;11.70;8.38;;;11.60;71.90;;;;;;5034730;28;20029;-57
2022/11/03 02:24:25;;;;;;;11.82;7.22;;;11.60;72.50;;;;;;5036153;28;20040;-57
2022/11/03 02:26:54;;;;;;;9.02;6.78;;;11.60;71.80;;;;;;5041359;28;20483;-57
2022/11/03 02:29:20;;;;;;;11.65;7.82;;;11.60;71.90;;;;;;5037944;28;20021;-56
2022/11/03 02:31:52;;;;;;;10.85;8.25;;;11.60;71.90;;;;;;5039571;28;20105;-56
2022/11/03 02:34:38;;;;;;;10.88;7.65;;;11.70;71.90;;;;;;5041676;28;20135;-57
2022/11/03 02:37:27;;;;;;;11.05;8.27;;;11.70;71.90;;;;;;5039058;28;20026;-56
2022/11/03 02:40:13;;;;;;;13.43;8.48;;;11.80;71.80;;;;;;5036783;28;20041;-56
2022/11/03 02:42:41;;;;;;;11.60;7.78;;;11.70;71.90;;;;;;5029923;28;20124;-56
2022/11/03 02:45:10;;;;;;;9.70;6.97;;;11.70;72.00;;;;;;5038279;28;20029;-56
2022/11/03 02:47:38;;;;;;;12.77;7.50;;;11.70;72.00;;;;;;5036379;28;20022;-56
2022/11/03 02:50:07;;;;;;;10.27;7.55;;;11.70;72.00;;;;;;5034133;28;20407;-57
2022/11/03 02:52:32;;;;;;;8.93;6.57;;;11.80;72.00;;;;;;5044117;28;20038;-55
2022/11/03 02:55:13;;;;;;;9.45;7.10;;;11.90;72.00;;;;;;5037869;28;20415;-57
2022/11/03 02:57:57;;;;;;;9.15;6.60;;;11.90;72.60;;;;;;5038702;28;20468;-55
2022/11/03 03:00:23;;;;;;;8.27;6.25;;;11.90;71.90;;;;;;5028573;28;20061;-56
2022/11/03 03:02:48;;;;;;;9.68;6.90;;;12.00;71.90;;;;;;5040134;28;20488;-55
2022/11/03 03:05:17;;;;;;;9.13;6.43;;;12.00;71.70;;;;;;5037917;28;20045;-56
2022/11/03 03:07:51;;;;;;;8.98;6.35;;;12.00;71.50;;;;;;5038690;28;20017;-55
2022/11/03 03:10:22;;;;;;;10.32;7.32;;;12.10;71.60;;;;;;5030569;28;20476;-56
2022/11/03 03:12:52;;;;;;;12.27;7.75;;;12.00;71.50;;;;;;5038278;28;20033;-56
2022/11/03 03:15:21;;;;;;;10.18;6.63;;;12.10;71.50;;;;;;5037177;28;20374;-57
2022/11/03 03:18:04;;;;;;;10.05;7.03;;;12.10;71.50;;;;;;5025314;28;20053;-56
2022/11/03 03:20:50;;;;;;;10.63;7.55;;;12.10;71.50;;;;;;5037990;28;20465;-55
2022/11/03 03:23:20;;;;;;;11.20;6.82;;;12.10;71.50;;;;;;5044276;28;20029;-55
2022/11/03 03:25:59;;;;;;;9.95;7.05;;;12.10;71.50;;;;;;5037642;28;20029;-56
2022/11/03 03:28:32;;;;;;;9.75;6.40;;;12.10;71.50;;;;;;5036493;28;20027;-55
2022/11/03 03:31:00;;;;;;;11.10;7.45;;;12.10;71.50;;;;;;5042026;28;20072;-56
2022/11/03 03:33:28;;;;;;;11.43;7.68;;;12.10;71.50;;;;;;5027915;28;20093;-53
2022/11/03 03:35:56;;;;;;;13.13;8.50;;;12.10;71.50;;;;;;5037863;28;20083;-56
2022/11/03 03:38:31;;;;;;;11.50;8.30;;;12.10;71.60;;;;;;5035321;28;20128;-56
2022/11/03 03:40:58;;;;;;;9.55;6.78;;;12.10;71.50;;;;;;5039180;28;20024;-55
2022/11/03 03:43:27;;;;;;;11.55;8.07;;;12.10;71.40;;;;;;5036441;28;20025;-56
2022/11/03 03:45:57;;;;;;;9.30;6.82;;;12.20;71.40;;;;;;5026197;28;20437;-55
2022/11/03 03:48:23;;;;;;;9.43;6.35;;;12.20;71.20;;;;;;5034999;28;20024;-55
2022/11/03 03:50:49;;;;;;;10.40;7.28;;;12.10;71.20;;;;;;5040370;28;20067;-55
2022/11/03 03:53:17;;;;;;;9.70;7.35;;;12.20;71.20;;;;;;5038040;28;20018;-56
2022/11/03 03:55:47;;;;;;;10.93;7.57;;;12.20;71.20;;;;;;5037274;28;20546;-55
2022/11/03 03:58:14;;;;;;;10.20;7.13;;;12.20;71.20;;;;;;5033789;28;20022;-56
2022/11/03 04:00:40;;;;;;;11.32;6.85;;;12.10;71.20;;;;;;5031396;28;20043;-56
2022/11/03 04:03:14;;;;;;;11.05;7.90;;;12.10;71.30;;;;;;5037350;28;20033;-56
2022/11/03 04:05:40;;;;;;;11.30;8.15;;;12.10;71.30;;;;;;5036137;28;20045;-57
2022/11/03 04:08:05;;;;;;;10.07;8.23;;;12.10;71.30;;;;;;5036936;28;20039;-56
2022/11/03 04:10:31;;;;;;;9.10;7.05;;;12.10;71.20;;;;;;5035446;28;20025;-56
2022/11/03 04:23:46;;;;;;;8.82;6.85;;;12.00;71.70;;;;;;5039748;28;20084;-57
2022/11/03 04:26:14;;;;;;;10.98;7.60;;;12.00;71.60;;;;;;5036502;28;20029;-55
2022/11/03 04:28:41;;;;;;;9.70;6.55;;;12.00;71.60;;;;;;5035505;28;20065;-56
2022/11/03 04:31:11;;;;;;;9.45;6.97;;;11.90;71.50;;;;;;5038968;28;20376;-57
2022/11/03 04:33:37;;;;;;;8.25;6.60;;;12.00;71.60;;;;;;5035507;28;20029;-56
2022/11/03 04:36:09;;;;;;;9.77;6.55;;;12.00;71.60;;;;;;5036404;28;20030;-56
2022/11/03 04:38:36;;;;;;;7.85;5.47;;;12.00;71.50;;;;;;5035021;28;20029;-55
2022/11/03 04:41:11;;;;;;;8.48;5.60;;;12.00;71.50;;;;;;5039866;28;20108;-56
2022/11/03 04:43:37;;;;;;;8.77;6.47;;;12.00;71.50;;;;;;5025248;28;20029;-54
2022/11/03 04:46:04;;;;;;;8.52;5.80;;;12.00;71.40;;;;;;5036649;28;20094;-56
2022/11/03 04:48:32;;;;;;;7.38;5.60;;;12.00;71.50;;;;;;5033265;28;20018;-55
2022/11/03 04:51:01;;;;;;;9.27;6.63;;;12.00;71.60;;;;;;5037397;28;20465;-55
2022/11/03 04:53:31;;;;;;;8.45;6.03;;;11.90;71.70;;;;;;5036273;28;20040;-55
2022/11/03 04:55:59;;;;;;;8.87;6.53;;;11.90;71.70;;;;;;5036571;28;20030;-55
2022/11/03 04:58:33;;;;;;;9.55;6.30;;;11.90;71.80;;;;;;5036509;28;20026;-56
2022/11/03 05:01:00;;;;;;;8.93;6.00;;;11.90;71.90;;;;;;5034937;28;20040;-56
2022/11/03 05:03:27;;;;;;;7.68;5.82;;;11.90;72.00;;;;;;5036777;28;20041;-55
2022/11/03 05:05:52;;;;;;;9.63;6.30;;;11.90;72.10;;;;;;5036410;28;20386;-56
2022/11/03 05:08:19;;;;;;;8.43;5.97;;;11.90;72.20;;;;;;5041992;28;20025;-56
2022/11/03 05:10:46;;;;;;;7.40;5.72;;;11.90;72.10;;;;;;5035128;28;20116;-56
2022/11/03 05:13:19;;;;;;;9.20;6.68;;;11.90;72.20;;;;;;5036202;28;20056;-57
2022/11/03 05:15:48;;;;;;;9.98;7.28;;;11.90;72.80;;;;;;5035505;28;20025;-56
2022/11/03 05:18:26;;;;;;;9.90;7.28;;;11.90;72.20;;;;;;5037239;28;20029;-55
2022/11/03 05:20:57;;;;;;;9.15;7.00;;;11.90;72.30;;;;;;5035841;28;20471;-56
2022/11/03 05:23:22;;;;;;;10.85;7.30;;;11.90;72.40;;;;;;5036078;28;20477;-56
2022/11/03 05:25:53;;;;;;;12.57;8.93;;;11.90;72.40;;;;;;5035296;28;20091;-56
2022/11/03 05:28:20;;;;;;;11.52;8.73;;;12.00;72.50;;;;;;5038086;28;20113;-56
2022/11/03 05:30:47;;;;;;;11.90;9.23;;;12.00;72.50;;;;;;5041762;28;20028;-56
2022/11/03 05:33:34;;;;;;;15.13;9.95;;;12.00;72.30;;;;;;5045033;28;20075;-56
2022/11/03 05:36:04;;;;;;;13.90;10.25;;;12.00;72.10;;;;;;5016699;28;20486;-56
2022/11/03 05:38:32;;;;;;;10.93;8.68;;;12.00;72.00;;;;;;5028286;28;20033;-55
2022/11/03 05:40:58;;;;;;;13.18;9.02;;;12.00;72.00;;;;;;5031078;28;20109;-55
2022/11/03 05:43:26;;;;;;;11.93;8.60;;;12.10;72.10;;;;;;5038187;28;20055;-56
2022/11/03 05:45:57;;;;;;;11.32;8.00;;;12.00;72.10;;;;;;5045076;28;20030;-57
2022/11/03 05:48:39;;;;;;;12.80;9.18;;;12.00;72.20;;;;;;5035582;28;20743;-55
2022/11/03 05:51:27;;;;;;;12.68;9.38;;;12.10;72.20;;;;;;5035121;28;20032;-58
2022/11/03 05:53:56;;;;;;;14.77;9.73;;;12.10;72.20;;;;;;5027863;28;20049;-58
2022/11/03 05:56:24;;;;;;;14.55;9.88;;;12.10;72.30;;;;;;5024915;28;20100;-56
2022/11/03 05:58:55;;;;;;;12.38;10.00;;;12.10;72.40;;;;;;5026224;28;20048;-55
2022/11/03 06:01:29;;;;;;;16.15;10.30;;;12.10;72.40;;;;;;5025433;28;20018;-57
2022/11/03 06:03:55;;;;;;;14.90;11.70;;;12.10;72.50;;;;;;5029457;28;20491;-56
2022/11/03 06:06:26;;;;;;;16.85;12.05;;;12.10;72.30;;;;;;5024224;28;20026;-57
2022/11/03 06:08:52;;;;;;;16.27;11.20;;;12.10;72.90;;;;;;5033424;28;20076;-57
2022/11/03 06:11:44;;;;;;;15.38;10.82;;;12.10;72.20;;;;;;5022384;28;20041;-56
2022/11/03 06:14:22;;;;;;;13.77;9.52;;;12.10;72.10;;;;;;5020435;28;20045;-57
2022/11/03 06:16:58;;;;;;;15.13;10.68;;;12.10;72.20;;;;;;5044223;28;20040;-56
2022/11/03 06:19:41;;;;;;;12.30;9.18;;;12.10;72.20;;;;;;5029504;28;20083;-55
2022/11/03 06:22:15;;;;;;;12.35;8.95;;;12.10;72.10;;;;;;5026124;28;20057;-56
2022/11/03 06:24:42;;;;;;;12.65;8.68;;;12.20;72.00;;;;;;5025250;28;20033;-56
2022/11/03 06:27:23;;;;;;;12.90;9.25;;;12.10;72.10;;;;;;5026616;28;20080;-56
2022/11/03 06:29:57;;;;;;;11.63;8.63;;;12.20;72.00;;;;;;5032515;28;20033;-58
2022/11/03 06:32:24;;;;;;;12.73;9.98;;;12.20;72.20;;;;;;5026985;28;20472;-57
2022/11/03 06:34:53;;;;;;;13.25;9.80;;;12.20;72.20;;;;;;5040738;28;20028;-58
2022/11/03 06:37:25;;;;;;;11.02;8.20;;;12.20;72.20;;;;;;5034740;28;20348;-57
2022/11/03 06:39:52;;;;;;;;;;;12.30;72.20;;;;;;5021277;28;20080;-57
2022/11/03 06:42:20;;;;;;;11.50;7.35;;;12.20;72.30;;;;;;5029409;28;19963;-57
2022/11/03 06:44:49;;;;;;;13.63;8.85;;;12.20;72.10;;;;;;5038693;28;20032;-56
2022/11/03 06:47:22;;;;;;;12.63;8.60;;;12.30;72.20;;;;;;5033781;28;20026;-58
2022/11/03 06:49:53;;;;;;;11.32;8.35;;;12.30;72.20;;;;;;5026526;28;20030;-55
2022/11/03 06:52:30;;;;;;;9.43;7.07;;;12.20;72.30;;;;;;5028362;28;20041;-55
2022/11/03 06:55:08;;;;;;;9.93;7.68;;;12.30;72.30;;;;;;5022079;28;20037;-56
2022/11/03 06:57:37;;;;;;;10.82;7.50;;;12.30;72.30;;;;;;5020429;28;20061;-56
2022/11/03 07:00:21;;;;;;;10.43;7.05;;;12.40;72.40;;;;;;5017118;28;20017;-56
2022/11/03 07:02:49;;;;;;;9.82;6.88;;;12.40;72.50;;;;;;5022063;28;20601;-56
2022/11/03 07:05:30;;;;;;;8.95;7.25;;;12.40;72.50;;;;;;5017641;28;20052;-56
2022/11/03 07:08:09;;;;;;;10.82;7.70;;;12.50;72.70;;;;;;5020809;28;20500;-56
2022/11/03 07:10:35;;;;;;;9.20;6.82;;;12.50;72.70;;;;;;5027697;28;20030;-58
2022/11/03 07:13:11;;;;;;;11.10;8.10;;;12.50;72.70;;;;;;5018163;28;20029;-56
2022/11/03 07:15:38;;;;;;;12.13;8.88;;;12.50;72.80;;;;;;5027939;28;20033;-58
2022/11/03 07:18:13;;;;;;;12.02;8.73;;;12.60;72.80;;;;;;5026966;28;20496;-57
2022/11/03 07:20:39;;;;;;;11.27;8.15;;;12.60;72.70;;;;;;5022746;28;20033;-58
2022/11/03 07:23:09;;;;;;;10.90;7.82;;;12.70;72.70;;;;;;5032191;28;20029;-57
2022/11/03 07:25:34;;;;;;;11.02;7.70;;;12.60;72.60;;;;;;5020298;28;20018;-57
2022/11/03 07:28:01;;;;;;;10.43;7.43;;;12.60;72.70;;;;;;5019332;28;20037;-57
2022/11/03 07:30:33;;;;;;;11.77;8.02;;;12.70;72.70;;;;;;5020058;28;20033;-56
2022/11/03 07:33:08;;;;;;;13.80;8.27;;;12.70;72.70;;;;;;5022871;28;20024;-57
2022/11/03 07:35:36;;;;;;;10.85;8.63;;;12.70;72.70;;;;;;5025623;28;20034;-57
2022/11/03 07:38:14;;;;;;;10.52;8.13;;;12.70;72.70;;;;;;5027041;28;20037;-54
2022/11/03 07:40:40;;;;;;;13.48;9.05;;;12.70;72.70;;;;;;5023311;28;20033;-57
2022/11/03 07:43:21;;;;;;;14.48;10.63;;;12.70;73.00;;;;;;5029009;28;20488;-55
2022/11/03 07:45:51;;;;;;;14.77;9.27;;;12.80;73.50;;;;;;5027863;28;20021;-59
2022/11/03 07:48:23;;;;;;;11.68;8.30;;;12.80;72.90;;;;;;5020614;28;20073;-57
2022/11/03 07:50:51;;;;;;;12.38;8.63;;;12.80;72.90;;;;;;5019611;28;20041;-55
2022/11/03 07:53:27;;;;;;;12.98;9.32;;;12.90;72.90;;;;;;5008358;28;21861;-58
2022/11/03 07:55:55;;;;;;;13.52;9.32;;;12.90;72.80;;;;;;5020722;28;20039;-57
2022/11/03 07:58:35;;;;;;;13.57;8.35;;;12.90;72.80;;;;;;5021024;28;20119;-58
2022/11/03 08:01:15;;;;;;;11.27;8.45;;;13.00;72.70;;;;;;5011086;28;20046;-56
2022/11/03 08:03:46;;;;;;;13.38;8.80;;;13.00;72.80;;;;;;5009959;28;20037;-59
2022/11/03 08:06:12;;;;;;;15.65;10.00;;;13.00;72.80;;;;;;5007728;28;20034;-58
2022/11/03 08:08:37;;;;;;;13.20;9.38;;;13.00;72.80;;;;;;5011319;28;20045;-59
2022/11/03 08:11:04;;;;;;;13.40;9.50;;;13.10;72.90;;;;;;5016211;28;20149;-61
2022/11/03 08:13:30;;;;;;;13.13;9.00;;;13.10;72.90;;;;;;5025801;28;20025;-59
2022/11/03 08:15:56;;;;;;;13.90;7.93;;;13.10;72.80;;;;;;5017487;28;20045;-59
2022/11/03 08:18:22;;;;;;;11.18;7.95;;;13.10;72.80;;;;;;5010014;28;20041;-60
2022/11/03 08:20:48;;;;;;;11.93;7.82;;;13.20;72.60;;;;;;5016983;28;20042;-58
2022/11/03 08:23:13;;;;;;;12.07;9.13;;;13.20;72.70;;;;;;5024809;28;20037;-59
2022/11/03 08:25:39;;;;;;;12.13;8.60;;;13.20;72.80;;;;;;5015952;28;20044;-58
2022/11/03 08:28:04;;;;;;;13.82;9.18;;;13.20;72.80;;;;;;5019167;28;20045;-60
2022/11/03 08:30:30;;;;;;;12.75;8.82;;;13.20;72.80;;;;;;5004142;28;20037;-59
2022/11/03 08:32:56;;;;;;;15.48;10.20;;;13.20;73.00;;;;;;4998200;28;20029;-60
2022/11/03 08:35:22;;;;;;;12.65;9.27;;;13.30;73.00;;;;;;5002950;28;21217;-60
2022/11/03 08:37:47;;;;;;;15.82;10.48;;;13.20;73.10;;;;;;5011428;28;20040;-59
2022/11/03 08:40:13;;;;;;;14.40;9.80;;;13.20;73.20;;;;;;5005130;28;20084;-59
2022/11/03 08:42:40;;;;;;;12.90;8.88;;;13.20;73.30;;;;;;5008835;28;20041;-58
2022/11/03 08:45:06;;;;;;;12.65;9.00;;;13.20;73.30;;;;;;5006785;28;20030;-61
2022/11/03 08:47:31;;;;;;;14.23;8.93;;;13.20;73.40;;;;;;5009316;28;20052;-59
2022/11/03 08:49:57;;;;;;;12.15;8.70;;;13.20;73.50;;;;;;4988446;28;20026;-60
2022/11/03 08:52:23;;;;;;;13.10;8.77;;;13.10;73.50;;;;;;5006019;28;20022;-59
2022/11/03 08:54:49;;;;;;;11.55;7.53;;;13.10;73.80;;;;;;5001238;28;20041;-60
2022/11/03 08:57:14;;;;;;;11.48;7.47;;;13.10;73.90;;;;;;5007395;28;20034;-60
2022/11/03 08:59:40;;;;;;;10.90;8.18;;;13.00;73.90;;;;;;5011941;28;20112;-59
2022/11/03 09:02:05;;;;;;;11.05;8.68;;;13.00;74.20;;;;;;5004350;28;20099;-60
2022/11/03 09:04:31;;;;;;;11.50;7.72;;;12.90;74.10;;;;;;5009406;28;20152;-60
2022/11/03 09:06:57;;;;;;;12.52;7.93;;;12.90;74.30;;;;;;5003038;28;20503;-60
2022/11/03 09:09:22;;;;;;;9.02;6.55;;;12.90;74.40;;;;;;5000992;28;20132;-60
2022/11/03 09:11:48;;;;;;;9.75;7.47;;;12.80;74.50;;;;;;5014730;28;20034;-59
2022/11/03 09:14:13;;;;;;;9.77;7.50;;;12.80;74.80;;;;;;4996464;28;20100;-60
2022/11/03 09:16:39;;;;;;;9.48;7.07;;;12.80;75.00;;;;;;4998053;28;22184;-60
2022/11/03 09:19:05;;;;;;;10.40;7.40;;;12.80;75.10;;;;;;5004306;28;20041;-59
2022/11/03 09:21:30;;;;;;;11.07;8.48;;;12.80;75.20;;;;;;4998128;28;20786;-59
2022/11/03 09:23:58;;;;;;;12.65;8.30;;;12.80;75.30;;;;;;5000682;28;20029;-59
2022/11/03 09:26:25;;;;;;;11.13;7.40;;;12.80;75.30;;;;;;4999885;28;20036;-60
2022/11/03 09:28:50;;;;;;;12.45;8.18;;;12.80;75.40;;;;;;5008020;28;20381;-60
2022/11/03 09:31:17;;;;;;;11.02;7.57;;;12.80;75.50;;;;;;4999222;28;20033;-60
2022/11/03 09:33:42;;;;;;;10.98;7.63;;;12.80;75.70;;;;;;4990841;28;20025;-60
2022/11/03 09:36:08;;;;;;;12.95;7.32;;;12.80;75.70;;;;;;4988036;28;20051;-59
2022/11/03 09:38:34;;;;;;;10.38;7.40;;;12.80;75.70;;;;;;4999244;28;20036;-60
2022/11/03 09:41:00;;;;;;;10.70;6.72;;;12.80;75.80;;;;;;4994845;28;20041;-59
2022/11/03 09:43:25;;;;;;;12.02;8.07;;;12.80;75.80;;;;;;4995059;28;21509;-59
2022/11/03 09:45:52;;;;;;;10.35;7.38;;;12.80;75.90;;;;;;5005421;28;20041;-59
2022/11/03 09:48:18;;;;;;;10.40;7.15;;;12.80;76.10;;;;;;5005525;28;20239;-60
2022/11/03 09:50:48;;;;;;;11.65;7.15;;;12.90;76.40;;;;;;4996726;28;20061;-58
2022/11/03 09:53:13;;;;;;;9.57;6.50;;;12.90;76.60;;;;;;4995642;28;20037;-59
2022/11/03 09:55:39;;;;;;;11.98;7.55;;;12.90;76.70;;;;;;4997205;28;20071;-59
2022/11/03 09:58:16;;;;;;;11.32;8.13;;;12.90;76.90;;;;;;4990102;28;20029;-59
2022/11/03 10:00:42;;;;;;;10.35;6.93;;;13.00;76.90;;;;;;4990247;28;20025;-60
2022/11/03 12:49:46;;;;;;;6.20;3.70;;;12.20;79.50;;;;;;5049532;27;20622;-60
2022/11/03 12:52:12;;;;;;;4.35;3.45;;;12.20;77.80;;;;;;5027822;28;20036;-59
2022/11/03 12:54:38;;;;;;;5.97;3.83;;;12.30;79.10;;;;;;5025294;28;20477;-59
2022/11/03 12:57:04;;;;;;;5.85;4.00;;;12.30;80.20;;;;;;5037945;28;20029;-61
2022/11/03 12:59:29;;;;;;;7.40;4.70;;;12.40;81.10;;;;;;5025538;28;20028;-60
2022/11/03 13:01:55;;;;;;;5.97;4.20;;;12.50;81.80;;;;;;5027808;28;20024;-60
2022/11/03 13:04:20;;;;;;;7.20;4.25;;;12.60;82.40;;;;;;5043304;28;20034;-60
2022/11/03 13:06:46;;;;;;;5.85;3.83;;;12.70;83.40;;;;;;5033491;28;20039;-59
2022/11/03 13:09:12;;;;;;;8.80;6.38;;;12.70;83.00;;;;;;5035217;28;20081;-58
2022/11/03 13:14:21;;;;;;;7.63;5.60;;;12.80;83.80;;;;;;5040578;28;20094;-58
2022/11/03 13:16:47;;;;;;;5.53;4.72;;;12.80;84.00;;;;;;5034002;28;20407;-59
2022/11/03 13:19:13;;;;;;;5.70;3.83;;;12.80;84.00;;;;;;5037690;28;20033;-58
2022/11/03 13:21:38;;;;;;;5.25;3.22;;;12.70;83.90;;;;;;5030786;28;20615;-60
2022/11/03 13:24:04;;;;;;;3.35;2.78;;;12.70;83.90;;;;;;5034411;28;20043;-60
2022/11/03 13:26:30;;;;;;;3.03;2.72;;;12.60;84.00;;;;;;5040646;28;20027;-60
2022/11/03 13:28:56;;;;;;;4.88;3.17;;;12.60;84.30;;;;;;5033810;28;20040;-60
2022/11/03 13:31:21;;;;;;;4.13;3.33;;;12.50;84.30;;;;;;5032443;28;20160;-58
2022/11/03 13:33:47;;;;;;;3.95;3.05;;;12.50;84.70;;;;;;5041718;28;20040;-60
2022/11/03 13:36:13;;;;;;;4.82;3.30;;;12.40;84.80;;;;;;5034780;28;20017;-60
2022/11/03 13:38:38;;;;;;;4.63;2.88;;;12.40;84.90;;;;;;5036943;28;20807;-59
2022/11/03 13:41:04;;;;;;;4.47;3.38;;;12.40;85.20;;;;;;5044008;28;20029;-59
2022/11/03 13:43:30;;;;;;;3.47;3.08;;;12.30;85.30;;;;;;5041429;28;20174;-61
2022/11/03 13:46:01;;;;;;;3.45;2.90;;;12.30;85.50;;;;;;5046520;28;20119;-60
2022/11/03 13:48:27;;;;;;;4.18;2.90;;;12.30;85.50;;;;;;5037197;28;20144;-60
2022/11/03 13:50:53;;;;;;;4.30;3.00;;;12.30;85.60;;;;;;5044623;28;20681;-59
2022/11/03 13:53:18;;;;;;;4.82;3.42;;;12.30;85.80;;;;;;5041851;28;20035;-61
2022/11/03 13:55:44;;;;;;;3.70;3.05;;;12.30;85.80;;;;;;5056825;28;20032;-61
2022/11/03 13:58:10;;;;;;;4.70;3.70;;;12.20;85.90;;;;;;5039763;28;20125;-61
2022/11/03 14:00:36;;;;;;;4.43;3.55;;;12.20;86.00;;;;;;5039842;28;20037;-61
2022/11/03 14:03:02;;;;;;;4.05;3.15;;;12.20;86.10;;;;;;5040900;28;20092;-61
2022/11/03 14:05:28;;;;;;;4.35;3.25;;;12.20;86.10;;;;;;5039722;28;20123;-61
2022/11/03 14:07:54;;;;;;;4.50;3.40;;;12.20;86.30;;;;;;5032618;28;20040;-60
2022/11/03 14:10:19;;;;;;;3.75;3.25;;;12.10;86.30;;;;;;5038478;28;20891;-61
2022/11/03 14:12:45;;;;;;;4.47;3.60;;;12.10;86.50;;;;;;5038622;28;20140;-59
2022/11/03 14:15:12;;;;;;;5.40;3.10;;;12.10;86.70;;;;;;5046765;28;20123;-60
2022/11/03 14:17:39;;;;;;;4.93;3.50;;;12.00;86.80;;;;;;5043267;28;20048;-59
2022/11/03 14:20:08;;;;;;;4.15;3.17;;;12.00;87.00;;;;;;5045296;28;20364;-61
2022/11/03 14:22:37;;;;;;;3.53;3.08;;;12.00;87.10;;;;;;5028240;28;20025;-59
2022/11/03 14:25:06;;;;;;;4.10;3.20;;;11.90;87.10;;;;;;5036308;28;20053;-59
2022/11/03 14:27:32;;;;;;;4.22;2.90;;;11.90;87.30;;;;;;5030220;28;20029;-59
2022/11/03 14:29:57;;;;;;;3.67;2.75;;;11.90;87.40;;;;;;5039281;28;20056;-60
2022/11/03 14:32:23;;;;;;;3.38;2.88;;;11.90;87.50;;;;;;5025277;28;20524;-59
2022/11/03 14:34:49;;;;;;;4.18;3.28;;;11.90;87.60;;;;;;5022993;28;20053;-60
2022/11/03 14:37:15;;;;;;;3.58;2.85;;;11.90;87.60;;;;;;5023882;28;20124;-59
2022/11/03 14:39:40;;;;;;;3.05;2.60;;;11.90;87.60;;;;;;5031858;28;20024;-58
2022/11/03 14:42:14;;;;;;;2.33;2.13;;;11.90;87.70;;;;;;5028703;28;20072;-59
2022/11/03 14:44:41;;;;;;;2.40;2.20;;;11.90;87.60;;;;;;5044260;28;20745;-59
2022/11/03 14:47:09;;;;;;;3.00;2.40;;;11.90;87.50;;;;;;5032113;28;20028;-61
2022/11/03 14:49:35;;;;;;;3.40;2.85;;;11.90;87.60;;;;;;5033406;28;20419;-59
2022/11/03 14:52:03;;;;;;;3.60;2.45;;;11.90;87.60;;;;;;5037754;28;20039;-58
2022/11/03 14:54:30;;;;;;;3.50;2.85;;;11.90;87.60;;;;;;5028055;28;20032;-60
2022/11/03 14:56:55;;;;;;;2.53;2.28;;;11.90;87.60;;;;;;5027353;28;20108;-59
2022/11/03 14:59:21;;;;;;;2.90;2.35;;;11.90;87.60;;;;;;5032034;28;20039;-58
2022/11/03 15:01:48;;;;;;;2.60;2.35;;;11.80;87.60;;;;;;5017892;28;20025;-61
2022/11/03 15:04:14;;;;;;;2.95;2.50;;;11.90;87.60;;;;;;5017357;28;20122;-60
2022/11/03 15:06:40;;;;;;;3.05;2.53;;;11.80;87.50;;;;;;5028720;28;20043;-58
2022/11/03 15:09:06;;;;;;;2.42;2.22;;;11.80;87.50;;;;;;5039351;28;20443;-59
2022/11/03 15:11:33;;;;;;;2.95;2.40;;;11.80;87.60;;;;;;5036325;28;20023;-59
2022/11/03 15:13:58;;;;;;;3.05;2.35;;;11.80;87.70;;;;;;5043000;28;20013;-60
2022/11/03 15:16:24;;;;;;;2.15;1.95;;;11.80;87.90;;;;;;5034599;28;20114;-60
2022/11/03 15:18:50;;;;;;;2.63;2.42;;;11.90;87.90;;;;;;5034574;28;20768;-60
2022/11/03 15:21:16;;;;;;;2.70;2.10;;;11.90;88.00;;;;;;5041624;28;20047;-61
2022/11/03 15:23:42;;;;;;;3.47;2.80;;;11.90;88.30;;;;;;5033182;28;20119;-59
2022/11/03 15:26:08;;;;;;;2.88;2.53;;;11.90;88.50;;;;;;5029307;28;20033;-60
2022/11/03 15:28:34;;;;;;;3.00;2.65;;;11.90;88.50;;;;;;5040106;28;20528;-60
2022/11/03 15:31:00;;;;;;;3.58;3.20;;;11.90;88.60;;;;;;5043906;28;20024;-60
2022/11/03 15:33:26;;;;;;;4.18;3.50;;;11.90;88.70;;;;;;5035613;28;20083;-59
2022/11/03 15:35:52;;;;;;;3.83;3.42;;;11.90;88.90;;;;;;5036585;28;20072;-60
2022/11/03 15:38:18;;;;;;;5.18;4.00;;;11.90;89.10;;;;;;5036811;28;20108;-61
2022/11/03 15:40:44;;;;;;;4.65;3.85;;;11.90;89.20;;;;;;5035465;28;20029;-60
2022/11/03 15:43:09;;;;;;;6.00;4.45;;;11.90;89.40;;;;;;5035348;28;20492;-58
2022/11/03 15:45:35;;;;;;;3.95;3.40;;;11.90;89.60;;;;;;5031711;28;20033;-59
2022/11/03 15:48:01;;;;;;;3.80;2.97;;;11.80;89.70;;;;;;5033368;28;20045;-59
2022/11/03 15:50:27;;;;;;;3.20;2.90;;;11.80;89.80;;;;;;5040794;28;20025;-60
2022/11/03 15:52:53;;;;;;;3.67;3.10;;;11.80;89.80;;;;;;5030797;28;20124;-57
2022/11/03 15:55:20;;;;;;;4.90;3.78;;;11.90;89.90;;;;;;5033296;28;20024;-57